Time;durP1;ratioP1;P1;durP2;ratioP2;P2;SDS_P1;SDS_P2;PMS_P1;PMS_P2;Temp;Humidity;BMP_temperature;BMP_pressure;BME280_temperature;BME280_humidity;BME280_pressure;Samples;Min_cycle;Max_cycle;Signal;HPM_P1;HPM_P2
2022/06/27 00:00:48;;;;;;;4.28;3.42;;;;;;;22.97;100.00;99546.84;6305209;22;20031;-76
2022/06/27 00:03:14;;;;;;;7.38;3.53;;;;;;;22.93;100.00;99553.69;6303708;22;20057;-76
2022/06/27 00:05:39;;;;;;;6.18;3.65;;;;;;;22.87;100.00;99549.19;6303571;22;20465;-75
2022/06/27 00:08:05;;;;;;;5.70;3.20;;;;;;;22.80;100.00;99551.13;6302935;22;20027;-75
2022/06/27 00:10:31;;;;;;;7.15;3.80;;;;;;;22.84;100.00;99550.47;6304074;22;20041;-76
2022/06/27 00:12:56;;;;;;;6.00;3.55;;;;;;;22.89;100.00;99552.50;6303259;22;20094;-75
2022/06/27 00:15:22;;;;;;;7.55;3.58;;;;;;;22.86;100.00;99547.53;6303057;22;20057;-75
2022/06/27 00:17:48;;;;;;;6.57;3.55;;;;;;;22.87;100.00;99551.88;6303689;22;20339;-75
2022/06/27 00:20:13;;;;;;;5.43;3.47;;;;;;;22.88;100.00;99545.47;6303325;22;20086;-74
2022/06/27 00:22:39;;;;;;;6.18;3.42;;;;;;;22.88;100.00;99548.16;6303252;22;20082;-75
2022/06/27 00:25:06;;;;;;;6.22;4.00;;;;;;;22.84;100.00;99549.66;6303122;22;20014;-76
2022/06/27 00:27:31;;;;;;;7.70;4.63;;;;;;;22.82;100.00;99546.34;6302671;22;20324;-75
2022/06/27 00:29:57;;;;;;;7.95;3.67;;;;;;;22.80;100.00;99540.38;6303303;22;20011;-76
2022/06/27 00:32:23;;;;;;;5.82;3.70;;;;;;;22.80;100.00;99537.66;6303152;22;20004;-75
2022/06/27 00:34:50;;;;;;;5.03;3.25;;;;;;;22.70;100.00;99537.34;6303494;22;20065;-76
2022/06/27 00:37:15;;;;;;;6.25;4.30;;;;;;;22.72;100.00;99543.34;6275797;22;20082;-76
2022/06/27 00:39:42;;;;;;;6.15;3.63;;;;;;;22.69;100.00;99549.13;6275268;22;20086;-76
2022/06/27 00:42:08;;;;;;;8.07;4.53;;;;;;;22.67;100.00;99549.38;6303030;22;20098;-75
2022/06/27 00:44:36;;;;;;;6.75;3.55;;;;;;;22.67;100.00;99540.47;6302944;22;20328;-76
2022/06/27 00:47:04;;;;;;;6.20;3.47;;;;;;;22.64;100.00;99539.03;6303282;22;20093;-77
2022/06/27 00:53:17;;;;;;;7.05;4.40;;;;;;;22.69;100.00;99551.81;6299653;22;20073;-77
2022/06/27 00:55:43;;;;;;;6.18;3.78;;;;;;;22.65;100.00;99553.31;6303003;22;20007;-76
2022/06/27 00:58:09;;;;;;;5.95;4.00;;;;;;;22.59;100.00;99556.88;6299966;22;20046;-76
2022/06/27 01:00:34;;;;;;;5.00;3.63;;;;;;;22.58;100.00;99555.22;6272872;22;20003;-76
2022/06/27 01:03:00;;;;;;;4.10;3.40;;;;;;;22.55;100.00;99539.56;6273689;22;20019;-76
2022/06/27 01:05:25;;;;;;;6.97;4.15;;;;;;;22.53;100.00;99545.16;6304472;22;20022;-76
2022/06/27 01:07:51;;;;;;;5.10;4.07;;;;;;;22.44;100.00;99549.97;6305731;22;20019;-77
2022/06/27 01:10:17;;;;;;;7.03;3.55;;;;;;;22.27;100.00;99543.47;6277071;22;20326;-77
2022/06/27 01:12:42;;;;;;;6.75;3.80;;;;;;;22.17;100.00;99537.78;6304411;22;20339;-76
2022/06/27 01:15:11;;;;;;;5.78;3.67;;;;;;;21.96;100.00;99524.72;6305798;22;20003;-76
2022/06/27 01:17:38;;;;;;;7.45;3.80;;;;;;;21.79;100.00;99519.00;6306108;22;20037;-75
2022/06/27 01:20:04;;;;;;;6.47;4.22;;;;;;;21.63;100.00;99524.84;6305604;22;20042;-74
2022/06/27 01:22:31;;;;;;;4.50;3.95;;;;;;;21.60;100.00;99526.13;6277794;22;20011;-76
2022/06/27 01:24:56;;;;;;;7.20;3.80;;;;;;;21.67;100.00;99530.63;6305350;22;20018;-76
2022/06/27 01:27:22;;;;;;;9.77;3.75;;;;;;;21.77;100.00;99531.00;6304578;22;20010;-77
2022/06/27 01:29:48;;;;;;;5.38;3.72;;;;;;;21.85;100.00;99530.75;6276945;22;19999;-75
2022/06/27 01:32:14;;;;;;;9.02;4.00;;;;;;;21.95;100.00;99531.94;6277479;22;20035;-75
2022/06/27 01:34:39;;;;;;;8.25;4.35;;;;;;;21.97;100.00;99539.78;6277887;22;19999;-75
2022/06/27 01:37:06;;;;;;;4.68;4.00;;;;;;;22.00;100.00;99531.28;6277573;22;20011;-76
2022/06/27 01:39:37;;;;;;;5.50;3.67;;;;;;;22.00;100.00;99536.66;6277594;22;20007;-74
2022/06/27 01:42:04;;;;;;;5.40;3.63;;;;;;;21.87;100.00;99528.66;6276941;22;20057;-74
2022/06/27 01:44:32;;;;;;;6.05;3.72;;;;;;;21.77;100.00;99536.38;6276498;22;20015;-75
2022/06/27 01:47:05;;;;;;;4.93;3.40;;;;;;;21.69;100.00;99528.53;6278314;22;20054;-75
2022/06/27 01:49:32;;;;;;;7.75;4.05;;;;;;;21.61;100.00;99527.78;6277240;22;20094;-75
2022/06/27 01:52:01;;;;;;;8.52;4.00;;;;;;;21.47;100.00;99531.56;6277742;22;20429;-76
2022/06/27 01:54:27;;;;;;;8.68;3.35;;;;;;;21.47;100.00;99528.88;6277088;22;20011;-75
2022/06/27 01:56:53;;;;;;;6.25;3.78;;;;;;;21.45;100.00;99528.25;6277069;22;20014;-76
2022/06/27 01:59:22;;;;;;;4.65;3.45;;;;;;;21.44;100.00;99526.59;6250814;22;20011;-75
2022/06/27 02:01:47;;;;;;;7.13;3.85;;;;;;;21.44;100.00;99523.91;6277223;22;20412;-75
2022/06/27 02:04:15;;;;;;;7.10;4.07;;;;;;;21.49;100.00;99528.66;6276523;22;20029;-76
2022/06/27 02:06:42;;;;;;;4.57;3.53;;;;;;;21.49;100.00;99524.13;6277241;22;20033;-77
2022/06/27 02:09:12;;;;;;;6.95;3.90;;;;;;;21.50;100.00;99520.38;6277346;22;20004;-76
2022/06/27 02:11:38;;;;;;;8.45;3.67;;;;;;;21.52;100.00;99526.38;6277231;22;20026;-76
2022/06/27 02:14:10;;;;;;;8.40;5.15;;;;;;;21.46;100.00;99527.22;6275421;22;20018;-77
2022/06/27 02:16:39;;;;;;;5.30;3.95;;;;;;;21.46;100.00;99529.06;6277126;22;20022;-76
2022/06/27 02:19:05;;;;;;;7.28;3.92;;;;;;;21.43;100.00;99524.97;6277472;22;20082;-76
2022/06/27 02:21:31;;;;;;;6.90;3.85;;;;;;;21.42;100.00;99523.31;6305758;22;20110;-76
2022/06/27 02:23:57;;;;;;;4.57;3.85;;;;;;;21.39;100.00;99517.53;6305013;22;20402;-76
2022/06/27 02:26:25;;;;;;;5.20;3.65;;;;;;;21.37;100.00;99528.50;6276519;22;20007;-77
2022/06/27 02:28:53;;;;;;;5.45;3.70;;;;;;;21.36;100.00;99523.34;6303823;22;20039;-76
2022/06/27 02:31:19;;;;;;;6.05;4.15;;;;;;;21.36;100.00;99524.19;6303689;22;20019;-76
2022/06/27 02:33:46;;;;;;;5.25;4.03;;;;;;;21.35;100.00;99522.53;6305196;22;20431;-76
2022/06/27 02:36:16;;;;;;;4.95;3.80;;;;;;;21.35;100.00;99530.56;6304828;22;20710;-76
2022/06/27 02:38:44;;;;;;;7.43;3.88;;;;;;;21.32;100.00;99528.34;6305114;22;20443;-76
2022/06/27 02:41:17;;;;;;;7.40;3.95;;;;;;;21.26;100.00;99518.44;6277052;22;20313;-76
2022/06/27 02:43:52;;;;;;;4.35;3.95;;;;;;;21.14;100.00;99520.94;6303326;22;20039;-75
2022/06/27 02:46:18;;;;;;;8.85;4.00;;;;;;;21.10;100.00;99513.50;6275767;22;20004;-77
2022/06/27 02:48:47;;;;;;;7.85;4.25;;;;;;;21.06;100.00;99512.28;6304146;22;20017;-76
2022/06/27 02:51:15;;;;;;;6.47;4.20;;;;;;;21.02;100.00;99517.25;6276480;22;20003;-76
2022/06/27 02:54:07;;;;;;;5.05;4.10;;;;;;;20.93;100.00;99506.94;6276826;22;20015;-76
2022/06/27 02:57:00;;;;;;;7.40;3.95;;;;;;;20.83;100.00;99513.59;6304149;22;20022;-76
2022/06/27 02:59:38;;;;;;;9.38;4.15;;;;;;;20.75;100.00;99516.47;6275836;22;20019;-77
2022/06/27 03:02:08;;;;;;;8.23;4.53;;;;;;;20.71;100.00;99523.28;6276481;22;20022;-76
2022/06/27 03:04:56;;;;;;;5.43;4.25;;;;;;;20.68;100.00;99526.38;6276812;22;20037;-76
2022/06/27 03:07:22;;;;;;;6.28;4.47;;;;;;;20.73;100.00;99529.28;6276293;22;20094;-77
2022/06/27 03:09:48;;;;;;;6.63;3.88;;;;;;;20.74;100.00;99530.91;6304111;22;20046;-76
2022/06/27 03:12:13;;;;;;;6.50;4.10;;;;;;;20.84;100.00;99539.38;6276193;22;20031;-77
2022/06/27 03:14:39;;;;;;;6.63;4.03;;;;;;;20.83;100.00;99539.56;6275958;22;20007;-76
2022/06/27 03:17:04;;;;;;;6.90;4.35;;;;;;;20.74;100.00;99530.09;6276401;22;20101;-77
2022/06/27 03:19:40;;;;;;;6.10;3.65;;;;;;;20.58;100.00;99531.34;6276674;22;20044;-76
2022/06/27 03:22:25;;;;;;;5.70;4.25;;;;;;;20.52;100.00;99532.19;6276253;22;20018;-77
2022/06/27 03:24:50;;;;;;;4.85;4.28;;;;;;;20.45;100.00;99528.66;6277389;22;20008;-77
2022/06/27 03:27:16;;;;;;;7.00;4.55;;;;;;;20.36;100.00;99540.66;6277720;22;20323;-76
2022/06/27 03:29:41;;;;;;;9.63;4.60;;;;;;;20.27;100.00;99536.47;6276383;22;20007;-77
2022/06/27 03:32:07;;;;;;;4.35;3.90;;;;;;;20.23;100.00;99537.91;6275776;22;20395;-75
2022/06/27 03:34:34;;;;;;;5.00;4.18;;;;;;;20.26;100.00;99542.88;6276026;22;20090;-76
2022/06/27 03:37:16;;;;;;;8.40;4.75;;;;;;;20.32;100.00;99542.91;6275900;22;20114;-76
2022/06/27 03:39:42;;;;;;;5.50;4.13;;;;;;;20.42;100.00;99543.31;6276508;22;20007;-75
2022/06/27 03:42:07;;;;;;;5.03;4.20;;;;;;;20.55;100.00;99550.53;6303871;22;20003;-76
2022/06/27 03:44:33;;;;;;;6.40;4.47;;;;;;;20.65;100.00;99553.63;6276095;22;20011;-74
2022/06/27 03:46:58;;;;;;;7.07;4.00;;;;;;;20.74;100.00;99552.38;6275856;22;20292;-76
2022/06/27 03:52:32;;;;;;;5.15;4.03;;;;;;;20.82;100.00;99549.47;6275810;22;20784;-73
2022/06/27 03:54:58;;;;;;;9.80;3.80;;;;;;;20.81;100.00;99545.13;6276278;22;20017;-77
2022/06/27 03:57:23;;;;;;;8.02;4.45;;;;;;;20.84;100.00;99544.72;6275818;22;20088;-77
2022/06/27 03:59:49;;;;;;;8.02;4.40;;;;;;;20.88;100.00;99544.31;6303579;22;20012;-76
2022/06/27 04:02:16;;;;;;;4.72;3.70;;;;;;;20.90;100.00;99551.13;6275425;22;20011;-77
2022/06/27 04:05:03;;;;;;;8.65;4.40;;;;;;;20.98;100.00;99558.09;6275854;22;20033;-76
2022/06/27 04:07:29;;;;;;;5.63;4.38;;;;;;;21.02;100.00;99549.44;6275766;22;20058;-76
2022/06/27 04:09:56;;;;;;;4.95;4.07;;;;;;;20.99;100.00;99535.59;6276498;22;20007;-76
2022/06/27 04:12:22;;;;;;;5.35;4.25;;;;;;;21.00;100.00;99542.63;6275819;22;20014;-76
2022/06/27 04:15:17;;;;;;;5.82;4.50;;;;;;;21.05;100.00;99542.81;6193295;22;20020;-75
2022/06/27 04:18:01;;;;;;;5.75;4.35;;;;;;;21.10;100.00;99534.94;6303477;22;20026;-76
2022/06/27 04:20:45;;;;;;;8.73;4.32;;;;;;;21.13;100.00;99537.22;6303360;22;20075;-76
2022/06/27 04:23:11;;;;;;;6.90;3.83;;;;;;;21.10;100.00;99535.78;6275733;22;20011;-75
2022/06/27 04:25:55;;;;;;;6.50;4.88;;;;;;;20.98;100.00;99542.00;6303857;22;20022;-76
2022/06/27 04:28:22;;;;;;;5.53;4.32;;;;;;;20.91;100.00;99535.84;6275415;22;20019;-76
2022/06/27 04:30:47;;;;;;;8.85;4.80;;;;;;;20.84;100.00;99542.06;6277719;22;20003;-75
2022/06/27 04:33:13;;;;;;;5.75;4.45;;;;;;;20.91;100.00;99541.22;6275998;22;20018;-75
2022/06/27 04:35:41;;;;;;;4.93;4.13;;;;;;;21.00;100.00;99545.31;6275680;22;20046;-77
2022/06/27 04:38:07;;;;;;;7.60;5.03;;;;;;;21.11;100.00;99541.97;6303816;22;20057;-75
2022/06/27 04:40:42;;;;;;;5.80;4.47;;;;;;;21.20;100.00;99540.75;6316468;22;20051;-77
2022/06/27 04:43:10;;;;;;;5.00;4.35;;;;;;;21.24;100.00;99545.47;6277865;22;20065;-76
2022/06/27 04:45:36;;;;;;;5.78;4.50;;;;;;;21.30;100.00;99546.50;6277988;22;20003;-75
2022/06/27 04:48:10;;;;;;;7.38;4.90;;;;;;;21.33;100.00;99551.44;6277858;22;20528;-76
2022/06/27 04:50:36;;;;;;;7.32;5.35;;;;;;;21.31;100.00;99542.78;6304718;22;20125;-74
2022/06/27 04:53:02;;;;;;;10.38;5.45;;;;;;;21.32;100.00;99544.44;6277927;22;20026;-76
2022/06/27 04:55:28;;;;;;;7.07;6.15;;;;;;;21.33;100.00;99551.44;6277586;22;20022;-76
2022/06/27 04:57:55;;;;;;;5.95;5.20;;;;;;;21.40;100.00;99546.03;6278153;22;20011;-75
2022/06/27 05:00:20;;;;;;;7.55;6.90;;;;;;;21.47;100.00;99547.66;6277215;22;20114;-76
2022/06/27 05:03:04;;;;;;;8.75;6.38;;;;;;;21.50;100.00;99557.97;6305767;22;20014;-77
2022/06/27 05:05:33;;;;;;;8.50;7.63;;;;;;;21.53;100.00;99560.25;6276909;22;20007;-77
2022/06/27 05:08:01;;;;;;;9.02;8.02;;;;;;;21.51;100.00;99554.25;6279556;22;20427;-78
2022/06/27 05:10:28;;;;;;;11.65;7.20;;;;;;;21.51;100.00;99554.25;6278283;22;20391;-79
2022/06/27 05:12:54;;;;;;;8.35;7.43;;;;;;;21.38;100.00;99559.69;6278163;22;20009;-80
2022/06/27 05:15:19;;;;;;;10.77;7.72;;;;;;;21.47;100.00;99569.13;6277212;22;20045;-79
2022/06/27 05:17:46;;;;;;;10.57;8.32;;;;;;;21.48;100.00;99570.78;6252969;22;20442;-79
2022/06/27 05:20:13;;;;;;;10.95;9.25;;;;;;;21.53;100.00;99564.78;6277810;22;20017;-78
2022/06/27 05:22:39;;;;;;;11.15;9.10;;;;;;;21.56;100.00;99562.47;6277692;22;20058;-78
2022/06/27 05:25:06;;;;;;;10.05;8.70;;;;;;;21.62;100.00;99558.94;6278108;22;20088;-78
2022/06/27 05:27:34;;;;;;;8.52;7.82;;;;;;;21.71;100.00;99562.22;6277565;22;20018;-79
2022/06/27 05:29:59;;;;;;;9.65;8.48;;;;;;;21.76;100.00;99566.94;6277609;22;20003;-81
2022/06/27 05:32:25;;;;;;;10.73;7.72;;;;;;;21.87;100.00;99569.78;6277765;22;20052;-76
2022/06/27 05:34:53;;;;;;;9.40;7.25;;;;;;;21.96;100.00;99563.16;6278667;22;20098;-77
2022/06/27 05:37:18;;;;;;;10.10;8.15;;;;;;;22.01;100.00;99570.56;6277270;22;20462;-76
2022/06/27 05:39:45;;;;;;;8.70;7.90;;;;;;;22.05;100.00;99571.75;6277584;22;20086;-76
2022/06/27 05:42:10;;;;;;;11.73;7.97;;;;;;;22.03;100.00;99571.19;6305505;22;20336;-76
2022/06/27 05:44:36;;;;;;;10.95;8.48;;;;;;;22.02;100.00;99562.28;6276809;22;20027;-76
2022/06/27 05:47:03;;;;;;;9.45;8.30;;;;;;;22.09;100.00;99562.22;6277588;22;20439;-77
2022/06/27 05:49:28;;;;;;;8.73;7.55;;;;;;;22.18;100.00;99566.31;6304213;22;20089;-77
2022/06/27 05:51:58;;;;;;;9.15;8.25;;;;;;;22.25;100.00;99577.84;6251750;22;20026;-77
2022/06/27 05:54:25;;;;;;;9.35;8.45;;;;;;;22.31;100.00;99566.22;6277099;22;20015;-78
2022/06/27 05:56:52;;;;;;;10.90;7.60;;;;;;;22.39;100.00;99568.63;6277307;22;20374;-76
2022/06/27 05:59:18;;;;;;;11.45;8.90;;;;;;;22.49;100.00;99570.00;6251181;22;20030;-77
2022/06/27 06:01:49;;;;;;;11.10;9.48;;;;;;;22.44;100.00;99571.47;6252384;22;20086;-77
2022/06/27 06:04:16;;;;;;;14.32;8.77;;;;;;;22.52;100.00;99566.88;6277165;22;20056;-77
2022/06/27 06:06:43;;;;;;;13.00;9.00;;;;;;;22.58;100.00;99576.75;6277164;22;20094;-78
2022/06/27 06:09:10;;;;;;;9.70;8.07;;;;;;;22.69;100.00;99584.09;6276631;22;20008;-77
2022/06/27 06:11:36;;;;;;;10.98;7.80;;;;;;;22.76;100.00;99574.97;6277162;22;20328;-77
2022/06/27 06:14:04;;;;;;;10.07;6.95;;;;;;;22.88;100.00;99577.75;6276817;22;20010;-77
2022/06/27 06:16:30;;;;;;;11.95;7.75;;;;;;;22.98;100.00;99583.44;6276910;22;20019;-77
2022/06/27 06:18:56;;;;;;;11.07;7.90;;;;;;;23.06;100.00;99585.84;6277248;22;20145;-76
2022/06/27 06:21:23;;;;;;;11.18;8.35;;;;;;;23.00;100.00;99581.38;6303408;22;20448;-76
2022/06/27 06:23:51;;;;;;;13.63;8.48;;;;;;;23.00;100.00;99575.16;6303075;22;20013;-77
2022/06/27 06:26:19;;;;;;;10.70;8.25;;;;;;;23.07;100.00;99579.44;6275136;22;20082;-76
2022/06/27 06:28:46;;;;;;;12.80;7.43;;;;;;;23.19;100.00;99583.03;6275277;22;20015;-76
2022/06/27 06:31:21;;;;;;;9.90;8.32;;;;;;;23.22;100.00;99574.50;6275454;22;20015;-75
2022/06/27 06:33:50;;;;;;;9.73;7.75;;;;;;;23.32;100.00;99576.69;6275641;22;20106;-74
2022/06/27 06:36:16;;;;;;;10.32;7.45;;;;;;;23.44;100.00;99571.38;6275298;22;20019;-75
2022/06/27 06:38:42;;;;;;;9.80;8.07;;;;;;;23.34;100.00;99577.25;6275403;22;20007;-75
2022/06/27 06:41:08;;;;;;;10.70;7.50;;;;;;;23.35;100.00;99565.44;6275462;22;20073;-75
2022/06/27 06:43:34;;;;;;;9.10;7.22;;;;;;;23.49;100.00;99569.69;6302698;22;20420;-75
2022/06/27 06:46:35;;;;;;;9.95;7.53;;;;;;;23.62;100.00;99574.09;6147922;23;20017;-75
2022/06/27 06:49:06;;;;;;;12.60;7.72;;;;;;;23.66;100.00;99572.56;6253245;22;20011;-76
2022/06/27 06:51:34;;;;;;;8.35;6.85;;;;;;;23.71;100.00;99569.19;6302170;22;20015;-76
2022/06/27 06:54:04;;;;;;;9.77;7.18;;;;;;;23.77;100.00;99570.97;6303143;22;20007;-76
2022/06/27 06:56:30;;;;;;;12.30;7.20;;;;;;;23.81;100.00;99572.97;6301947;22;20403;-78
2022/06/27 06:59:00;;;;;;;11.93;7.93;;;;;;;23.81;100.00;99582.94;6302009;22;20090;-76
2022/06/27 07:01:27;;;;;;;9.38;6.85;;;;;;;23.79;100.00;99585.88;6302468;22;20015;-75
2022/06/27 07:03:54;;;;;;;8.38;6.00;;;;;;;23.84;100.00;99583.31;6302939;22;20420;-76
2022/06/27 07:06:25;;;;;;;8.57;5.80;;;;;;;23.94;100.00;99577.38;6301891;22;20055;-74
2022/06/27 07:09:00;;;;;;;7.65;5.93;;;;;;;24.02;100.00;99585.97;6301011;22;20008;-73
2022/06/27 07:11:32;;;;;;;12.57;4.70;;;;;;;24.10;100.00;99590.19;6300409;22;20015;-73
2022/06/27 07:13:58;;;;;;;7.88;5.20;;;;;;;24.18;100.00;99605.22;6274094;22;20041;-77
2022/06/27 07:16:24;;;;;;;7.72;5.65;;;;;;;24.24;100.00;99598.94;6302273;22;20011;-75
2022/06/27 07:18:51;;;;;;;9.73;5.00;;;;;;;24.31;100.00;99599.69;6301736;22;20065;-74
2022/06/27 07:21:18;;;;;;;7.95;4.63;;;;;;;24.40;100.00;99600.97;6302024;22;20047;-75
2022/06/27 07:23:47;;;;;;;9.88;4.35;;;;;;;24.47;100.00;99604.41;6302626;22;20003;-75
2022/06/27 07:26:14;;;;;;;5.53;4.60;;;;;;;24.55;100.00;99595.16;6301993;22;20029;-76
2022/06/27 07:28:40;;;;;;;9.15;5.32;;;;;;;24.63;100.00;99601.00;6302660;22;20018;-74
2022/06/27 07:31:11;;;;;;;11.10;4.72;;;;;;;24.70;100.00;99599.03;6303666;22;20015;-74
2022/06/27 07:33:38;;;;;;;9.65;4.32;;;;;;;24.75;100.00;99601.84;6302596;22;20042;-74
2022/06/27 07:36:08;;;;;;;9.98;4.15;;;;;;;24.81;100.00;99603.63;6302792;22;19999;-74
2022/06/27 07:38:38;;;;;;;11.20;6.15;;;;;;;24.88;100.00;99604.38;6303779;22;20007;-75
2022/06/27 07:41:07;;;;;;;8.02;5.13;;;;;;;24.91;100.00;99604.97;6304026;22;20043;-73
2022/06/27 07:43:34;;;;;;;9.38;4.65;;;;;;;24.95;100.00;99606.94;6303855;22;20018;-74
2022/06/27 07:46:01;;;;;;;6.38;4.88;;;;;;;24.99;100.00;99612.69;6276745;22;20010;-75
2022/06/27 07:48:27;;;;;;;8.55;5.07;;;;;;;25.02;100.00;99606.84;6301934;22;20050;-74
2022/06/27 07:50:54;;;;;;;6.45;5.03;;;;;;;25.07;100.00;99593.44;6302626;22;20015;-74
2022/06/27 07:53:20;;;;;;;12.88;4.63;;;;;;;25.10;100.00;99598.38;6302181;22;20086;-74
2022/06/27 07:55:56;;;;;;;9.43;4.90;;;;;;;25.15;100.00;99595.81;6301760;22;20408;-74
2022/06/27 07:58:32;;;;;;;7.53;4.50;;;;;;;25.19;100.00;99596.97;6301199;22;20076;-74
2022/06/27 08:01:00;;;;;;;7.70;4.28;;;;;;;25.24;100.00;99600.59;6301938;22;20011;-74
2022/06/27 08:03:41;;;;;;;7.57;3.88;;;;;;;25.31;100.00;99588.84;6274369;22;20034;-74
2022/06/27 08:06:14;;;;;;;12.98;4.82;;;;;;;25.39;100.00;99597.38;6302014;22;20041;-75
2022/06/27 08:08:49;;;;;;;7.65;4.72;;;;;;;25.44;100.00;99597.53;6274702;22;20090;-74
2022/06/27 08:11:18;;;;;;;6.55;4.47;;;;;;;25.51;100.00;99600.06;6301731;22;20007;-75
2022/06/27 08:13:47;;;;;;;7.82;4.13;;;;;;;25.56;99.26;99603.75;6301164;22;20003;-73
2022/06/27 08:16:14;;;;;;;5.97;4.70;;;;;;;25.65;100.00;99601.47;6301326;22;20018;-75
2022/06/27 08:18:44;;;;;;;9.95;4.60;;;;;;;25.69;99.67;99587.25;6302133;22;20007;-75
2022/06/27 08:21:10;;;;;;;;;;;;;;;25.76;99.76;99591.69;6302300;22;20011;-75
2022/06/27 08:23:37;;;;;;;6.95;4.70;;;;;;;25.78;97.68;99595.81;6302005;22;19911;-75
2022/06/27 08:26:07;;;;;;;11.02;4.55;;;;;;;25.82;96.93;99596.97;6302432;22;20055;-75
2022/06/27 08:28:34;;;;;;;;;;;;;;;25.86;97.35;99605.44;6302090;22;20494;-74
2022/06/27 08:31:01;;;;;;;9.55;4.50;;;;;;;25.92;95.73;99604.47;6301668;22;19981;-77
2022/06/27 08:33:30;;;;;;;7.20;4.97;;;;;;;25.97;95.30;99599.16;6301572;22;20387;-75
2022/06/27 08:35:57;;;;;;;7.68;4.72;;;;;;;25.98;95.19;99595.34;6302147;22;20003;-74
2022/06/27 08:38:24;;;;;;;8.85;4.72;;;;;;;26.00;93.50;99607.59;6301750;22;20011;-76
2022/06/27 08:40:51;;;;;;;12.32;4.68;;;;;;;26.04;93.40;99605.22;6302184;22;20007;-77
2022/06/27 08:43:17;;;;;;;9.75;4.70;;;;;;;26.06;94.43;99597.69;6302177;22;20011;-75
2022/06/27 08:45:47;;;;;;;9.20;4.72;;;;;;;26.20;94.57;99601.75;6301139;22;20016;-78
2022/06/27 08:48:13;;;;;;;;;;;;;;;26.28;93.43;99590.53;6301689;22;20019;-78
2022/06/27 08:50:39;;;;;;;8.40;3.90;;;;;;;26.36;91.24;99592.84;6304381;22;19930;-80
2022/06/27 08:53:06;;;;;;;12.13;5.10;;;;;;;26.41;91.14;99595.66;6302367;22;20432;-80
2022/06/27 08:55:33;;;;;;;10.98;4.40;;;;;;;26.48;90.88;99590.06;6274138;22;20102;-81
2022/06/27 08:58:06;;;;;;;8.85;5.00;;;;;;;26.57;93.28;99587.81;6274651;22;20374;-79
2022/06/27 09:00:36;;;;;;;7.70;4.50;;;;;;;26.63;91.20;99587.59;6301630;22;20022;-83
2022/06/27 09:03:03;;;;;;;9.80;5.53;;;;;;;26.70;89.81;99593.69;6302561;22;20011;-81
2022/06/27 09:05:30;;;;;;;11.23;5.20;;;;;;;26.74;90.35;99594.03;6302034;22;20007;-83
2022/06/27 09:08:02;;;;;;;9.88;4.38;;;;;;;26.85;90.60;99602.06;6302153;22;20015;-82
2022/06/27 09:10:31;;;;;;;10.18;4.50;;;;;;;27.01;86.47;99599.59;6302449;22;20043;-81
2022/06/27 09:13:02;;;;;;;7.33;3.77;;;;;;;27.15;85.42;99593.59;6274863;22;20015;-83
2022/06/27 09:15:46;;;;;;;8.02;4.43;;;;;;;27.21;82.79;99594.47;6301200;22;20011;-83
2022/06/27 09:18:14;;;;;;;7.30;4.63;;;;;;;27.24;83.68;99583.97;6301974;22;20086;-85
2022/06/27 09:20:52;;;;;;;6.35;4.72;;;;;;;27.23;85.08;99587.72;6276925;22;20011;-85
2022/06/27 09:23:51;;;;;;;8.60;4.10;;;;;;;27.26;85.77;99576.41;6303258;22;20022;-84
2022/06/27 09:26:26;;;;;;;8.52;4.00;;;;;;;27.36;86.36;99574.88;6304699;22;20015;-83
2022/06/27 09:28:59;;;;;;;11.10;4.60;;;;;;;27.50;85.03;99565.31;6303796;22;20011;-81
2022/06/27 09:31:25;;;;;;;10.70;4.97;;;;;;;27.49;84.12;99567.22;6303830;22;20332;-82
2022/06/27 09:34:16;;;;;;;11.98;4.63;;;;;;;27.43;82.96;99570.09;6303537;22;20007;-83
2022/06/27 09:36:48;;;;;;;10.32;4.85;;;;;;;27.36;85.41;99564.06;6304647;22;20011;-82
2022/06/27 09:39:29;;;;;;;12.25;4.20;;;;;;;27.42;85.19;99571.19;6305009;22;20007;-81
2022/06/27 09:42:09;;;;;;;8.38;3.78;;;;;;;27.45;83.04;99562.56;6305364;22;20007;-83
2022/06/27 09:44:39;;;;;;;9.55;4.53;;;;;;;27.52;82.79;99568.59;6304923;22;20031;-82
2022/06/27 09:47:12;;;;;;;9.20;4.35;;;;;;;27.60;80.65;99574.41;6304926;22;20047;-84
2022/06/27 09:49:41;;;;;;;6.18;3.90;;;;;;;27.66;80.65;99569.88;6303786;22;20011;-82
2022/06/27 09:52:11;;;;;;;11.85;4.13;;;;;;;27.68;80.99;99573.16;6277141;22;20696;-82
2022/06/27 09:54:37;;;;;;;12.73;4.72;;;;;;;27.66;81.33;99570.69;6307258;22;20014;-82
2022/06/27 09:57:05;;;;;;;11.85;4.97;;;;;;;27.64;83.77;99566.59;6315489;22;20034;-83
2022/06/27 09:59:31;;;;;;;7.35;4.15;;;;;;;27.68;84.24;99567.75;6304184;22;20011;-82
2022/06/27 10:01:57;;;;;;;7.25;4.75;;;;;;;27.68;83.33;99559.59;6304891;22;20037;-82
2022/06/27 10:04:24;;;;;;;7.72;4.85;;;;;;;27.70;84.08;99554.72;6304047;22;20060;-82
2022/06/27 10:06:51;;;;;;;8.30;4.38;;;;;;;27.70;83.86;99550.13;6304619;22;20489;-82
2022/06/27 10:09:20;;;;;;;6.47;4.03;;;;;;;27.78;83.42;99553.47;6304334;22;20007;-81
2022/06/27 10:11:48;;;;;;;10.10;4.63;;;;;;;27.85;83.40;99554.09;6305100;22;20336;-82
2022/06/27 10:14:23;;;;;;;9.45;4.60;;;;;;;27.91;82.38;99545.75;6304515;22;20430;-81
2022/06/27 10:16:58;;;;;;;6.65;4.40;;;;;;;27.98;83.12;99559.91;6306436;22;20085;-82
2022/06/27 10:19:29;;;;;;;9.75;4.50;;;;;;;28.10;81.95;99555.16;6304295;22;20003;-82
2022/06/27 10:21:56;;;;;;;8.45;4.45;;;;;;;28.13;80.48;99555.72;6277000;22;20011;-82
2022/06/27 10:24:21;;;;;;;11.02;4.55;;;;;;;28.17;80.37;99556.88;6303920;22;20002;-82
2022/06/27 10:26:52;;;;;;;10.57;4.40;;;;;;;28.18;80.22;99556.63;6304369;22;20015;-82
2022/06/27 10:29:27;;;;;;;7.88;4.95;;;;;;;28.25;79.89;99551.81;6304028;22;20011;-81
2022/06/27 10:31:54;;;;;;;10.80;5.28;;;;;;;28.27;79.22;99552.38;6303792;22;20015;-82
2022/06/27 10:34:49;;;;;;;11.25;4.60;;;;;;;28.31;78.93;99555.38;6303992;22;20079;-82
2022/06/27 10:37:26;;;;;;;9.10;4.60;;;;;;;28.31;79.21;99555.38;6277217;22;20015;-82
2022/06/27 10:40:20;;;;;;;10.27;4.40;;;;;;;28.28;78.50;99550.44;6304817;22;20007;-83
2022/06/27 10:42:49;;;;;;;10.35;5.20;;;;;;;28.34;78.72;99544.00;6303849;22;20015;-80
2022/06/27 10:45:21;;;;;;;12.15;4.53;;;;;;;28.39;78.16;99546.78;6303857;22;20007;-82
2022/06/27 10:47:47;;;;;;;12.90;4.30;;;;;;;28.45;77.07;99545.75;6304811;22;20118;-82
2022/06/27 10:50:15;;;;;;;11.45;4.25;;;;;;;28.49;74.64;99544.13;6305999;22;20309;-80
2022/06/27 10:52:41;;;;;;;9.05;4.05;;;;;;;28.48;74.46;99551.47;6304952;22;20490;-81
2022/06/27 10:55:23;;;;;;;10.55;5.50;;;;;;;28.55;75.06;99543.09;6303097;22;20070;-80
2022/06/27 10:57:49;;;;;;;8.07;4.50;;;;;;;28.56;75.11;99535.78;6276928;22;20018;-82
2022/06/27 11:00:41;;;;;;;10.55;4.70;;;;;;;28.58;75.10;99534.41;6302666;22;20019;-81
2022/06/27 11:03:18;;;;;;;6.88;3.97;;;;;;;28.65;75.77;99535.00;6277469;22;20038;-82
2022/06/27 11:06:04;;;;;;;11.82;3.70;;;;;;;28.80;73.92;99532.44;6303845;22;20011;-82
2022/06/27 11:08:32;;;;;;;9.10;4.18;;;;;;;28.97;72.12;99531.44;6303541;22;20026;-82
2022/06/27 11:10:58;;;;;;;13.25;3.72;;;;;;;29.00;69.19;99537.16;6303861;22;20064;-81
2022/06/27 11:13:55;;;;;;;11.60;4.25;;;;;;;29.05;68.45;99529.03;6303790;22;20358;-82
2022/06/27 11:16:30;;;;;;;10.77;4.07;;;;;;;29.03;69.92;99524.97;6276263;22;20015;-78
2022/06/27 11:18:59;;;;;;;12.43;3.88;;;;;;;29.02;70.30;99520.59;6251907;22;20428;-79
2022/06/27 11:21:27;;;;;;;11.02;4.10;;;;;;;29.06;69.75;99530.69;6250664;22;20060;-78
2022/06/27 11:24:01;;;;;;;13.05;4.20;;;;;;;29.09;69.40;99524.72;6250936;22;20447;-79
2022/06/27 11:26:31;;;;;;;11.48;4.50;;;;;;;29.11;69.03;99521.72;6276448;22;20068;-79
2022/06/27 11:31:59;;;;;;;11.25;3.75;;;;;;;29.25;68.74;99514.75;6276728;22;20056;-81
2022/06/27 11:34:30;;;;;;;10.27;4.20;;;;;;;29.23;67.71;99519.59;6250692;22;20444;-79
2022/06/27 11:36:58;;;;;;;10.98;3.72;;;;;;;29.30;66.18;99514.75;6250539;22;20443;-79
2022/06/27 11:39:31;;;;;;;10.65;3.88;;;;;;;29.43;61.94;99514.28;6249971;22;20015;-78
2022/06/27 11:41:59;;;;;;;14.15;4.00;;;;;;;29.49;58.50;99507.78;6250873;22;20015;-79
2022/06/27 11:44:27;;;;;;;16.80;3.53;;;;;;;29.50;57.57;99514.06;6250865;22;20034;-79
2022/06/27 11:47:04;;;;;;;12.68;3.90;;;;;;;29.61;55.41;99511.09;6250978;22;20015;-81